sensor_id;sensor_type;location;lat;lon;timestamp;pressure;altitude;pressure_sealevel;temperature;humidity
44926;BME280;30662;51.210;7.656;2023-01-31T00:01:32;149333.13;;;2.07;100.00
44926;BME280;30662;51.210;7.656;2023-01-31T00:04:00;149334.38;;;2.07;100.00
44926;BME280;30662;51.210;7.656;2023-01-31T00:06:29;149287.88;;;1.88;100.00
44926;BME280;30662;51.210;7.656;2023-01-31T00:08:56;149299.16;;;1.93;100.00
44926;BME280;30662;51.210;7.656;2023-01-31T00:11:24;149262.69;;;1.78;100.00
44926;BME280;30662;51.210;7.656;2023-01-31T00:13:51;149299.16;;;1.93;100.00
44926;BME280;30662;51.210;7.656;2023-01-31T00:16:18;149297.91;;;1.92;100.00
44926;BME280;30662;51.210;7.656;2023-01-31T00:18:45;149277.81;;;1.84;100.00
44926;BME280;30662;51.210;7.656;2023-01-31T00:21:13;149274.03;;;1.83;100.00
44926;BME280;30662;51.210;7.656;2023-01-31T00:23:40;149268.97;;;1.81;100.00
44926;BME280;30662;51.210;7.656;2023-01-31T00:26:18;149282.81;;;1.86;100.00
44926;BME280;30662;51.210;7.656;2023-01-31T00:28:45;149290.38;;;1.89;100.00
44926;BME280;30662;51.210;7.656;2023-01-31T00:31:12;149311.75;;;1.98;100.00
44926;BME280;30662;51.210;7.656;2023-01-31T00:33:40;149299.16;;;1.93;100.00
44926;BME280;30662;51.210;7.656;2023-01-31T00:36:12;149256.44;;;1.76;100.00
44926;BME280;30662;51.210;7.656;2023-01-31T00:38:39;149276.53;;;1.84;100.00
44926;BME280;30662;51.210;7.656;2023-01-31T00:41:06;149290.38;;;1.89;100.00
44926;BME280;30662;51.210;7.656;2023-01-31T00:43:33;149328.13;;;2.05;100.00
44926;BME280;30662;51.210;7.656;2023-01-31T00:46:00;149287.88;;;1.88;100.00
44926;BME280;30662;51.210;7.656;2023-01-31T00:48:26;149297.91;;;1.92;100.00
44926;BME280;30662;51.210;7.656;2023-01-31T00:50:52;149285.31;;;1.87;100.00
44926;BME280;30662;51.210;7.656;2023-01-31T00:53:18;149279.06;;;1.85;100.00
44926;BME280;30662;51.210;7.656;2023-01-31T00:55:49;149286.59;;;1.88;100.00
44926;BME280;30662;51.210;7.656;2023-01-31T00:58:16;149300.44;;;1.93;100.00
44926;BME280;30662;51.210;7.656;2023-01-31T01:00:42;149306.75;;;1.96;100.00
44926;BME280;30662;51.210;7.656;2023-01-31T01:03:08;149313.00;;;1.99;100.00
44926;BME280;30662;51.210;7.656;2023-01-31T01:05:34;149310.50;;;1.98;100.00
44926;BME280;30662;51.210;7.656;2023-01-31T01:08:01;149301.69;;;1.94;100.00
44926;BME280;30662;51.210;7.656;2023-01-31T01:10:27;149302.94;;;1.94;100.00
44926;BME280;30662;51.210;7.656;2023-01-31T01:12:52;149291.66;;;1.90;100.00
44926;BME280;30662;51.210;7.656;2023-01-31T01:15:18;149279.06;;;1.85;100.00
44926;BME280;30662;51.210;7.656;2023-01-31T01:17:45;149274.03;;;1.83;100.00
44926;BME280;30662;51.210;7.656;2023-01-31T01:20:11;149265.22;;;1.79;100.00
44926;BME280;30662;51.210;7.656;2023-01-31T01:22:37;149265.22;;;1.79;100.00
44926;BME280;30662;51.210;7.656;2023-01-31T01:25:04;149280.31;;;1.85;100.00
44926;BME280;30662;51.210;7.656;2023-01-31T01:27:30;149299.16;;;1.93;100.00
44926;BME280;30662;51.210;7.656;2023-01-31T01:29:56;149265.22;;;1.79;100.00
44926;BME280;30662;51.210;7.656;2023-01-31T01:32:23;149237.56;;;1.68;100.00
44926;BME280;30662;51.210;7.656;2023-01-31T01:34:49;149267.72;;;1.80;100.00
44926;BME280;30662;51.210;7.656;2023-01-31T01:37:15;149274.03;;;1.83;100.00
44926;BME280;30662;51.210;7.656;2023-01-31T01:39:48;149270.28;;;1.81;100.00
44926;BME280;30662;51.210;7.656;2023-01-31T01:42:22;149263.97;;;1.79;100.00
44926;BME280;30662;51.210;7.656;2023-01-31T01:52:30;149245.09;;;1.71;100.00
44926;BME280;30662;51.210;7.656;2023-01-31T01:55:03;149242.59;;;1.70;100.00
44926;BME280;30662;51.210;7.656;2023-01-31T01:57:37;149243.84;;;1.71;100.00
44926;BME280;30662;51.210;7.656;2023-01-31T02:00:19;149211.16;;;1.57;100.00
44926;BME280;30662;51.210;7.656;2023-01-31T02:02:48;149216.22;;;1.59;100.00
44926;BME280;30662;51.210;7.656;2023-01-31T02:05:23;149213.66;;;1.58;100.00
44926;BME280;30662;51.210;7.656;2023-01-31T02:07:51;149231.25;;;1.65;100.00
44926;BME280;30662;51.210;7.656;2023-01-31T02:10:27;149212.41;;;1.58;100.00
44926;BME280;30662;51.210;7.656;2023-01-31T02:12:55;149208.63;;;1.56;100.00
44926;BME280;30662;51.210;7.656;2023-01-31T02:15:21;149227.50;;;1.64;100.00
44926;BME280;30662;51.210;7.656;2023-01-31T02:17:48;149217.47;;;1.60;100.00
44926;BME280;30662;51.210;7.656;2023-01-31T02:29:31;149209.91;;;1.57;100.00
44926;BME280;30662;51.210;7.656;2023-01-31T02:37:28;149197.31;;;1.52;100.00
44926;BME280;30662;51.210;7.656;2023-01-31T02:40:12;149199.88;;;1.53;100.00
44926;BME280;30662;51.210;7.656;2023-01-31T02:45:37;149213.66;;;1.58;100.00
44926;BME280;30662;51.210;7.656;2023-01-31T02:53:15;149192.28;;;1.50;100.00
44926;BME280;30662;51.210;7.656;2023-01-31T02:56:15;149191.03;;;1.49;100.00
44926;BME280;30662;51.210;7.656;2023-01-31T02:58:57;149203.63;;;1.54;100.00
44926;BME280;30662;51.210;7.656;2023-01-31T03:01:27;149202.38;;;1.54;100.00
44926;BME280;30662;51.210;7.656;2023-01-31T03:03:57;149212.41;;;1.58;100.00
44926;BME280;30662;51.210;7.656;2023-01-31T03:09:13;149217.47;;;1.60;100.00
44926;BME280;30662;51.210;7.656;2023-01-31T03:12:12;149201.13;;;1.53;100.00
44926;BME280;30662;51.210;7.656;2023-01-31T03:18:06;149150.84;;;1.33;100.00
44926;BME280;30662;51.210;7.656;2023-01-31T03:23:27;149164.66;;;1.38;100.00
44926;BME280;30662;51.210;7.656;2023-01-31T03:25:59;149179.72;;;1.45;100.00
44926;BME280;30662;51.210;7.656;2023-01-31T03:28:31;149160.84;;;1.37;100.00
44926;BME280;30662;51.210;7.656;2023-01-31T03:31:10;149170.94;;;1.41;100.00
44926;BME280;30662;51.210;7.656;2023-01-31T03:33:43;149168.44;;;1.40;100.00
44926;BME280;30662;51.210;7.656;2023-01-31T03:36:27;149183.53;;;1.46;100.00
44926;BME280;30662;51.210;7.656;2023-01-31T03:41:36;149181.00;;;1.45;100.00
44926;BME280;30662;51.210;7.656;2023-01-31T03:46:52;149172.19;;;1.42;100.00
44926;BME280;30662;51.210;7.656;2023-01-31T03:49:23;149169.69;;;1.41;100.00
44926;BME280;30662;51.210;7.656;2023-01-31T03:51:53;149148.31;;;1.32;100.00
44926;BME280;30662;51.210;7.656;2023-01-31T03:54:25;149148.31;;;1.32;100.00
44926;BME280;30662;51.210;7.656;2023-01-31T03:56:57;149160.84;;;1.37;100.00
44926;BME280;30662;51.210;7.656;2023-01-31T03:59:29;149157.09;;;1.35;100.00
44926;BME280;30662;51.210;7.656;2023-01-31T04:01:59;149167.16;;;1.40;100.00
44926;BME280;30662;51.210;7.656;2023-01-31T04:04:47;149197.31;;;1.52;100.00
44926;BME280;30662;51.210;7.656;2023-01-31T04:07:14;149164.66;;;1.38;100.00
44926;BME280;30662;51.210;7.656;2023-01-31T04:09:40;149199.88;;;1.53;100.00
44926;BME280;30662;51.210;7.656;2023-01-31T04:12:06;149184.78;;;1.47;100.00
44926;BME280;30662;51.210;7.656;2023-01-31T04:14:32;149172.19;;;1.42;100.00
44926;BME280;30662;51.210;7.656;2023-01-31T04:16:57;149207.38;;;1.56;100.00
44926;BME280;30662;51.210;7.656;2023-01-31T04:19:23;149168.44;;;1.40;100.00
44926;BME280;30662;51.210;7.656;2023-01-31T04:21:49;149154.59;;;1.34;100.00
44926;BME280;30662;51.210;7.656;2023-01-31T04:24:15;149149.56;;;1.32;100.00
44926;BME280;30662;51.210;7.656;2023-01-31T04:26:41;149148.31;;;1.32;100.00
44926;BME280;30662;51.210;7.656;2023-01-31T04:29:07;149162.13;;;1.37;100.00
44926;BME280;30662;51.210;7.656;2023-01-31T04:31:33;149159.59;;;1.36;100.00
44926;BME280;30662;51.210;7.656;2023-01-31T04:33:59;149162.13;;;1.37;100.00
44926;BME280;30662;51.210;7.656;2023-01-31T04:36:25;149179.72;;;1.45;100.00
44926;BME280;30662;51.210;7.656;2023-01-31T04:38:51;149157.09;;;1.35;100.00
44926;BME280;30662;51.210;7.656;2023-01-31T04:41:17;149145.81;;;1.31;100.00
44926;BME280;30662;51.210;7.656;2023-01-31T04:43:43;149145.81;;;1.31;100.00
44926;BME280;30662;51.210;7.656;2023-01-31T04:46:09;149150.84;;;1.33;100.00
44926;BME280;30662;51.210;7.656;2023-01-31T04:48:35;149134.47;;;1.26;100.00
44926;BME280;30662;51.210;7.656;2023-01-31T04:51:02;149120.66;;;1.21;100.00
44926;BME280;30662;51.210;7.656;2023-01-31T04:53:27;149150.84;;;1.33;100.00
44926;BME280;30662;51.210;7.656;2023-01-31T04:55:53;149139.50;;;1.28;100.00
44926;BME280;30662;51.210;7.656;2023-01-31T04:58:20;149140.75;;;1.29;100.00
44926;BME280;30662;51.210;7.656;2023-01-31T05:00:45;149152.09;;;1.33;100.00
44926;BME280;30662;51.210;7.656;2023-01-31T05:03:11;149095.53;;;1.10;100.00
44926;BME280;30662;51.210;7.656;2023-01-31T05:05:37;149144.56;;;1.30;100.00
44926;BME280;30662;51.210;7.656;2023-01-31T05:08:03;149137.00;;;1.27;100.00
44926;BME280;30662;51.210;7.656;2023-01-31T05:10:29;149150.84;;;1.33;100.00
44926;BME280;30662;51.210;7.656;2023-01-31T05:12:55;149144.56;;;1.30;100.00
44926;BME280;30662;51.210;7.656;2023-01-31T05:15:21;149170.94;;;1.41;100.00
44926;BME280;30662;51.210;7.656;2023-01-31T05:17:54;149163.41;;;1.38;100.00
44926;BME280;30662;51.210;7.656;2023-01-31T05:20:33;149174.69;;;1.43;100.00
44926;BME280;30662;51.210;7.656;2023-01-31T05:23:01;149157.09;;;1.35;100.00
44926;BME280;30662;51.210;7.656;2023-01-31T05:25:27;149165.94;;;1.39;100.00
44926;BME280;30662;51.210;7.656;2023-01-31T05:27:53;149129.47;;;1.24;100.00
44926;BME280;30662;51.210;7.656;2023-01-31T05:30:19;149124.41;;;1.22;100.00
44926;BME280;30662;51.210;7.656;2023-01-31T05:32:46;149140.75;;;1.29;100.00
44926;BME280;30662;51.210;7.656;2023-01-31T05:35:13;149173.44;;;1.42;100.00
44926;BME280;30662;51.210;7.656;2023-01-31T05:37:40;149182.25;;;1.46;100.00
44926;BME280;30662;51.210;7.656;2023-01-31T05:40:13;149149.56;;;1.32;100.00
44926;BME280;30662;51.210;7.656;2023-01-31T05:42:40;149150.84;;;1.33;100.00
44926;BME280;30662;51.210;7.656;2023-01-31T05:45:07;149142.00;;;1.29;100.00
44926;BME280;30662;51.210;7.656;2023-01-31T05:47:33;149123.16;;;1.22;100.00
44926;BME280;30662;51.210;7.656;2023-01-31T05:49:59;149115.63;;;1.19;100.00
44926;BME280;30662;51.210;7.656;2023-01-31T05:52:25;149113.13;;;1.18;100.00
44926;BME280;30662;51.210;7.656;2023-01-31T05:54:51;149126.97;;;1.23;100.00
44926;BME280;30662;51.210;7.656;2023-01-31T05:57:17;149135.75;;;1.27;100.00
44926;BME280;30662;51.210;7.656;2023-01-31T05:59:43;149114.38;;;1.18;100.00
44926;BME280;30662;51.210;7.656;2023-01-31T06:02:09;149144.56;;;1.30;100.00
44926;BME280;30662;51.210;7.656;2023-01-31T06:04:38;149129.47;;;1.24;100.00
44926;BME280;30662;51.210;7.656;2023-01-31T06:07:04;149124.41;;;1.22;100.00
44926;BME280;30662;51.210;7.656;2023-01-31T06:09:30;149129.47;;;1.24;100.00
44926;BME280;30662;51.210;7.656;2023-01-31T06:11:56;149174.69;;;1.43;100.00
44926;BME280;30662;51.210;7.656;2023-01-31T06:14:22;149131.97;;;1.25;100.00
44926;BME280;30662;51.210;7.656;2023-01-31T06:16:48;149153.34;;;1.34;100.00
44926;BME280;30662;51.210;7.656;2023-01-31T06:19:13;149126.97;;;1.23;100.00
44926;BME280;30662;51.210;7.656;2023-01-31T06:21:40;149124.41;;;1.22;100.00
44926;BME280;30662;51.210;7.656;2023-01-31T06:24:06;149139.50;;;1.28;100.00
44926;BME280;30662;51.210;7.656;2023-01-31T06:26:32;149155.84;;;1.35;100.00
44926;BME280;30662;51.210;7.656;2023-01-31T06:28:58;149167.16;;;1.40;100.00
44926;BME280;30662;51.210;7.656;2023-01-31T06:31:24;149204.88;;;1.55;100.00
44926;BME280;30662;51.210;7.656;2023-01-31T06:33:50;149155.84;;;1.35;100.00
44926;BME280;30662;51.210;7.656;2023-01-31T06:36:16;149162.13;;;1.37;100.00
44926;BME280;30662;51.210;7.656;2023-01-31T06:38:49;149159.59;;;1.36;100.00
44926;BME280;30662;51.210;7.656;2023-01-31T06:41:15;149155.84;;;1.35;100.00
44926;BME280;30662;51.210;7.656;2023-01-31T06:43:41;149163.41;;;1.38;100.00
44926;BME280;30662;51.210;7.656;2023-01-31T06:46:07;149172.19;;;1.42;100.00
44926;BME280;30662;51.210;7.656;2023-01-31T06:48:32;149174.69;;;1.43;100.00
44926;BME280;30662;51.210;7.656;2023-01-31T06:50:58;149175.94;;;1.43;100.00
44926;BME280;30662;51.210;7.656;2023-01-31T06:53:24;149188.53;;;1.48;100.00
44926;BME280;30662;51.210;7.656;2023-01-31T06:55:50;149172.19;;;1.42;100.00
44926;BME280;30662;51.210;7.656;2023-01-31T06:58:16;149175.94;;;1.43;100.00
44926;BME280;30662;51.210;7.656;2023-01-31T07:00:46;149172.19;;;1.42;100.00
44926;BME280;30662;51.210;7.656;2023-01-31T07:03:12;149153.34;;;1.34;100.00
44926;BME280;30662;51.210;7.656;2023-01-31T07:05:38;149142.00;;;1.29;100.00
44926;BME280;30662;51.210;7.656;2023-01-31T07:08:04;149130.72;;;1.25;100.00
44926;BME280;30662;51.210;7.656;2023-01-31T07:10:30;149125.66;;;1.23;100.00
44926;BME280;30662;51.210;7.656;2023-01-31T07:12:56;149133.22;;;1.26;100.00
44926;BME280;30662;51.210;7.656;2023-01-31T07:15:22;149150.84;;;1.33;100.00
44926;BME280;30662;51.210;7.656;2023-01-31T07:17:48;149162.13;;;1.37;100.00
44926;BME280;30662;51.210;7.656;2023-01-31T07:20:14;149148.31;;;1.32;100.00
44926;BME280;30662;51.210;7.656;2023-01-31T07:22:40;149178.47;;;1.44;100.00
44926;BME280;30662;51.210;7.656;2023-01-31T07:25:06;149181.00;;;1.45;100.00
44926;BME280;30662;51.210;7.656;2023-01-31T07:27:32;149150.84;;;1.33;100.00
44926;BME280;30662;51.210;7.656;2023-01-31T07:29:58;149175.94;;;1.43;100.00
44926;BME280;30662;51.210;7.656;2023-01-31T07:32:27;149159.59;;;1.36;100.00
44926;BME280;30662;51.210;7.656;2023-01-31T07:34:53;149160.84;;;1.37;100.00
44926;BME280;30662;51.210;7.656;2023-01-31T07:37:19;149155.84;;;1.35;100.00
44926;BME280;30662;51.210;7.656;2023-01-31T07:39:45;149164.66;;;1.38;100.00
44926;BME280;30662;51.210;7.656;2023-01-31T07:42:11;149192.28;;;1.50;100.00
44926;BME280;30662;51.210;7.656;2023-01-31T07:44:36;149168.44;;;1.40;100.00
44926;BME280;30662;51.210;7.656;2023-01-31T07:47:02;149182.25;;;1.46;100.00
44926;BME280;30662;51.210;7.656;2023-01-31T07:49:28;149147.06;;;1.31;100.00
44926;BME280;30662;51.210;7.656;2023-01-31T07:51:55;149119.41;;;1.20;100.00
44926;BME280;30662;51.210;7.656;2023-01-31T07:54:20;149128.22;;;1.24;100.00
44926;BME280;30662;51.210;7.656;2023-01-31T07:56:46;149144.56;;;1.30;100.00
44926;BME280;30662;51.210;7.656;2023-01-31T07:59:12;149125.66;;;1.23;100.00
44926;BME280;30662;51.210;7.656;2023-01-31T08:01:38;149167.16;;;1.40;100.00
44926;BME280;30662;51.210;7.656;2023-01-31T08:04:23;149183.53;;;1.46;100.00
44926;BME280;30662;51.210;7.656;2023-01-31T08:06:52;149208.63;;;1.56;100.00
44926;BME280;30662;51.210;7.656;2023-01-31T08:09:20;149150.84;;;1.33;100.00
44926;BME280;30662;51.210;7.656;2023-01-31T08:11:46;149157.09;;;1.35;100.00
44926;BME280;30662;51.210;7.656;2023-01-31T08:14:12;149138.25;;;1.28;100.00
44926;BME280;30662;51.210;7.656;2023-01-31T08:16:38;149123.16;;;1.22;100.00
44926;BME280;30662;51.210;7.656;2023-01-31T08:19:04;149130.72;;;1.25;100.00
44926;BME280;30662;51.210;7.656;2023-01-31T08:21:30;149155.84;;;1.35;100.00
44926;BME280;30662;51.210;7.656;2023-01-31T08:23:57;149150.84;;;1.33;100.00
44926;BME280;30662;51.210;7.656;2023-01-31T08:26:22;149124.41;;;1.22;100.00
44926;BME280;30662;51.210;7.656;2023-01-31T08:28:50;149160.84;;;1.37;100.00
44926;BME280;30662;51.210;7.656;2023-01-31T08:31:21;149154.59;;;1.34;100.00
44926;BME280;30662;51.210;7.656;2023-01-31T08:33:48;149172.19;;;1.42;100.00
44926;BME280;30662;51.210;7.656;2023-01-31T08:36:18;149182.25;;;1.46;100.00
44926;BME280;30662;51.210;7.656;2023-01-31T08:38:45;149162.13;;;1.37;100.00
44926;BME280;30662;51.210;7.656;2023-01-31T08:41:12;149202.38;;;1.54;100.00
44926;BME280;30662;51.210;7.656;2023-01-31T08:43:38;149235.06;;;1.67;100.00
44926;BME280;30662;51.210;7.656;2023-01-31T08:46:22;149223.75;;;1.62;100.00
44926;BME280;30662;51.210;7.656;2023-01-31T08:48:48;149177.19;;;1.44;100.00
44926;BME280;30662;51.210;7.656;2023-01-31T08:51:14;149194.81;;;1.51;100.00
44926;BME280;30662;51.210;7.656;2023-01-31T08:53:42;149183.53;;;1.46;100.00
44926;BME280;30662;51.210;7.656;2023-01-31T08:56:10;149211.16;;;1.57;100.00
44926;BME280;30662;51.210;7.656;2023-01-31T08:58:38;149222.47;;;1.62;100.00
44926;BME280;30662;51.210;7.656;2023-01-31T09:01:08;149238.84;;;1.69;100.00
44926;BME280;30662;51.210;7.656;2023-01-31T09:03:34;149247.63;;;1.72;100.00
44926;BME280;30662;51.210;7.656;2023-01-31T09:06:02;149232.50;;;1.66;100.00
44926;BME280;30662;51.210;7.656;2023-01-31T09:08:30;149222.47;;;1.62;100.00
44926;BME280;30662;51.210;7.656;2023-01-31T09:10:57;149248.88;;;1.73;100.00
44926;BME280;30662;51.210;7.656;2023-01-31T09:13:25;149219.97;;;1.61;100.00
44926;BME280;30662;51.210;7.656;2023-01-31T09:16:00;149235.06;;;1.67;100.00
44926;BME280;30662;51.210;7.656;2023-01-31T09:18:26;149275.28;;;1.83;100.00
44926;BME280;30662;51.210;7.656;2023-01-31T09:20:53;149275.28;;;1.83;100.00
44926;BME280;30662;51.210;7.656;2023-01-31T09:23:19;149257.69;;;1.76;100.00
44926;BME280;30662;51.210;7.656;2023-01-31T09:25:54;149272.78;;;1.82;100.00
44926;BME280;30662;51.210;7.656;2023-01-31T09:28:21;149294.16;;;1.91;100.00
44926;BME280;30662;51.210;7.656;2023-01-31T09:30:48;149289.13;;;1.89;100.00
44926;BME280;30662;51.210;7.656;2023-01-31T09:33:14;149271.53;;;1.82;100.00
44926;BME280;30662;51.210;7.656;2023-01-31T09:35:40;149260.19;;;1.77;100.00
44926;BME280;30662;51.210;7.656;2023-01-31T09:38:07;149233.78;;;1.66;100.00
44926;BME280;30662;51.210;7.656;2023-01-31T09:40:34;149207.38;;;1.56;100.00
44926;BME280;30662;51.210;7.656;2023-01-31T09:43:02;149253.94;;;1.75;100.00
44926;BME280;30662;51.210;7.656;2023-01-31T09:45:34;149260.19;;;1.77;100.00
44926;BME280;30662;51.210;7.656;2023-01-31T09:48:04;149233.78;;;1.66;100.00
44926;BME280;30662;51.210;7.656;2023-01-31T09:50:45;149257.69;;;1.76;100.00
44926;BME280;30662;51.210;7.656;2023-01-31T09:53:15;149282.81;;;1.86;100.00
44926;BME280;30662;51.210;7.656;2023-01-31T10:04:08;149233.78;;;1.66;100.00
44926;BME280;30662;51.210;7.656;2023-01-31T10:06:55;149223.75;;;1.62;100.00
44926;BME280;30662;51.210;7.656;2023-01-31T10:09:32;149212.41;;;1.58;100.00
44926;BME280;30662;51.210;7.656;2023-01-31T10:12:13;149227.50;;;1.64;100.00
44926;BME280;30662;51.210;7.656;2023-01-31T10:17:49;149280.31;;;1.85;100.00
44926;BME280;30662;51.210;7.656;2023-01-31T10:25:39;149214.91;;;1.59;100.00
44926;BME280;30662;51.210;7.656;2023-01-31T10:28:14;149245.09;;;1.71;100.00
44926;BME280;30662;51.210;7.656;2023-01-31T10:30:47;149280.31;;;1.85;100.00
44926;BME280;30662;51.210;7.656;2023-01-31T10:35:55;149292.91;;;1.90;100.00
44926;BME280;30662;51.210;7.656;2023-01-31T10:38:26;149263.97;;;1.79;100.00
44926;BME280;30662;51.210;7.656;2023-01-31T10:40:59;149285.31;;;1.87;100.00
44926;BME280;30662;51.210;7.656;2023-01-31T10:43:38;149271.53;;;1.82;100.00
44926;BME280;30662;51.210;7.656;2023-01-31T10:46:13;149271.53;;;1.82;100.00
44926;BME280;30662;51.210;7.656;2023-01-31T10:48:41;149301.69;;;1.94;100.00
44926;BME280;30662;51.210;7.656;2023-01-31T10:59:00;149330.63;;;2.06;100.00
44926;BME280;30662;51.210;7.656;2023-01-31T11:01:27;149324.34;;;2.03;100.00
44926;BME280;30662;51.210;7.656;2023-01-31T11:03:54;149314.28;;;1.99;100.00
44926;BME280;30662;51.210;7.656;2023-01-31T11:06:22;149349.50;;;2.13;100.00
44926;BME280;30662;51.210;7.656;2023-01-31T11:08:58;149358.28;;;2.17;100.00
44926;BME280;30662;51.210;7.656;2023-01-31T11:11:26;149325.59;;;2.04;100.00
44926;BME280;30662;51.210;7.656;2023-01-31T11:16:21;149358.28;;;2.17;100.00
44926;BME280;30662;51.210;7.656;2023-01-31T11:18:48;149390.97;;;2.30;100.00
44926;BME280;30662;51.210;7.656;2023-01-31T11:21:24;149368.34;;;2.21;100.00
44926;BME280;30662;51.210;7.656;2023-01-31T11:23:51;149360.81;;;2.18;100.00
44926;BME280;30662;51.210;7.656;2023-01-31T11:26:32;149363.34;;;2.19;100.00
44926;BME280;30662;51.210;7.656;2023-01-31T11:28:58;149369.59;;;2.21;100.00
44926;BME280;30662;51.210;7.656;2023-01-31T11:31:34;149388.47;;;2.29;100.00
44926;BME280;30662;51.210;7.656;2023-01-31T11:34:05;149374.63;;;2.24;100.00
44926;BME280;30662;51.210;7.656;2023-01-31T11:36:43;149399.81;;;2.34;100.00
44926;BME280;30662;51.210;7.656;2023-01-31T11:39:34;149421.19;;;2.42;100.00
44926;BME280;30662;51.210;7.656;2023-01-31T11:42:10;149388.47;;;2.29;100.00
44926;BME280;30662;51.210;7.656;2023-01-31T11:44:59;149387.22;;;2.29;100.00
44926;BME280;30662;51.210;7.656;2023-01-31T11:47:51;149398.56;;;2.33;100.00
44926;BME280;30662;51.210;7.656;2023-01-31T11:50:40;149359.56;;;2.17;100.00
44926;BME280;30662;51.210;7.656;2023-01-31T11:53:20;149349.50;;;2.13;100.00
44926;BME280;30662;51.210;7.656;2023-01-31T11:55:49;149357.00;;;2.16;100.00
44926;BME280;30662;51.210;7.656;2023-01-31T11:58:21;149353.25;;;2.15;100.00
44926;BME280;30662;51.210;7.656;2023-01-31T12:01:05;149335.63;;;2.08;100.00
44926;BME280;30662;51.210;7.656;2023-01-31T12:03:32;149336.91;;;2.08;100.00
44926;BME280;30662;51.210;7.656;2023-01-31T12:06:00;149336.91;;;2.08;100.00
44926;BME280;30662;51.210;7.656;2023-01-31T12:08:31;149318.03;;;2.01;100.00
44926;BME280;30662;51.210;7.656;2023-01-31T12:10:58;149323.06;;;2.03;100.00
44926;BME280;30662;51.210;7.656;2023-01-31T12:13:24;149362.09;;;2.18;100.00
44926;BME280;30662;51.210;7.656;2023-01-31T12:16:04;149334.38;;;2.07;100.00
44926;BME280;30662;51.210;7.656;2023-01-31T12:24:06;149353.25;;;2.15;100.00
44926;BME280;30662;51.210;7.656;2023-01-31T12:37:40;149396.06;;;2.32;100.00
44926;BME280;30662;51.210;7.656;2023-01-31T12:43:03;149392.25;;;2.31;100.00
44926;BME280;30662;51.210;7.656;2023-01-31T12:45:58;149370.88;;;2.22;100.00
44926;BME280;30662;51.210;7.656;2023-01-31T12:51:39;149341.97;;;2.10;100.00
44926;BME280;30662;51.210;7.656;2023-01-31T13:02:22;149390.97;;;2.30;100.00
44926;BME280;30662;51.210;7.656;2023-01-31T13:04:52;149398.56;;;2.33;100.00
44926;BME280;30662;51.210;7.656;2023-01-31T13:07:23;149417.44;;;2.41;100.00
44926;BME280;30662;51.210;7.656;2023-01-31T13:09:51;149411.09;;;2.38;100.00
44926;BME280;30662;51.210;7.656;2023-01-31T13:12:26;149389.72;;;2.30;100.00
44926;BME280;30662;51.210;7.656;2023-01-31T13:15:02;149398.56;;;2.33;100.00
44926;BME280;30662;51.210;7.656;2023-01-31T13:17:30;149389.72;;;2.30;100.00
44926;BME280;30662;51.210;7.656;2023-01-31T13:20:25;149407.34;;;2.37;100.00
44926;BME280;30662;51.210;7.656;2023-01-31T13:23:00;149418.69;;;2.41;100.00
44926;BME280;30662;51.210;7.656;2023-01-31T13:25:36;149404.84;;;2.36;100.00
44926;BME280;30662;51.210;7.656;2023-01-31T13:28:17;149427.47;;;2.45;100.00
44926;BME280;30662;51.210;7.656;2023-01-31T13:31:08;149442.56;;;2.51;100.00
44926;BME280;30662;51.210;7.656;2023-01-31T13:36:41;149432.53;;;2.47;100.00
44926;BME280;30662;51.210;7.656;2023-01-31T13:39:16;149416.16;;;2.40;100.00
44926;BME280;30662;51.210;7.656;2023-01-31T13:41:45;149422.44;;;2.43;100.00
44926;BME280;30662;51.210;7.656;2023-01-31T13:44:13;149417.44;;;2.41;100.00
44926;BME280;30662;51.210;7.656;2023-01-31T13:49:28;149416.16;;;2.40;100.00
44926;BME280;30662;51.210;7.656;2023-01-31T13:52:01;149421.19;;;2.42;100.00
44926;BME280;30662;51.210;7.656;2023-01-31T13:54:38;149450.16;;;2.54;100.00
44926;BME280;30662;51.210;7.656;2023-01-31T13:57:06;149432.53;;;2.47;100.00
44926;BME280;30662;51.210;7.656;2023-01-31T13:59:36;149470.28;;;2.62;100.00
44926;BME280;30662;51.210;7.656;2023-01-31T14:02:04;149467.75;;;2.61;100.00
44926;BME280;30662;51.210;7.656;2023-01-31T14:04:34;149456.41;;;2.57;100.00
44926;BME280;30662;51.210;7.656;2023-01-31T14:14:52;149445.06;;;2.52;100.00
44926;BME280;30662;51.210;7.656;2023-01-31T14:22:39;149463.94;;;2.60;100.00
44926;BME280;30662;51.210;7.656;2023-01-31T14:27:38;149479.06;;;2.66;100.00
44926;BME280;30662;51.210;7.656;2023-01-31T14:44:05;149491.66;;;2.71;100.00
44926;BME280;30662;51.210;7.656;2023-01-31T14:46:16;149509.28;;;2.78;100.00
44926;BME280;30662;51.210;7.656;2023-01-31T14:49:10;149487.88;;;2.69;100.00
44926;BME280;30662;51.210;7.656;2023-01-31T14:55:03;149524.38;;;2.84;100.00
44926;BME280;30662;51.210;7.656;2023-01-31T14:57:14;149525.63;;;2.85;100.00
44926;BME280;30662;51.210;7.656;2023-01-31T14:59:59;149510.53;;;2.79;100.00
44926;BME280;30662;51.210;7.656;2023-01-31T15:05:04;149506.75;;;2.77;100.00
44926;BME280;30662;51.210;7.656;2023-01-31T15:07:32;149505.50;;;2.76;100.00
44926;BME280;30662;51.210;7.656;2023-01-31T15:09:58;149552.03;;;2.95;100.00
44926;BME280;30662;51.210;7.656;2023-01-31T15:12:53;149558.38;;;2.98;100.00
44926;BME280;30662;51.210;7.656;2023-01-31T15:15:33;149518.06;;;2.82;100.00
44926;BME280;30662;51.210;7.656;2023-01-31T15:18:04;149530.66;;;2.87;100.00
44926;BME280;30662;51.210;7.656;2023-01-31T15:20:42;149536.94;;;2.89;100.00
44926;BME280;30662;51.210;7.656;2023-01-31T15:23:16;149545.75;;;2.93;100.00
44926;BME280;30662;51.210;7.656;2023-01-31T15:25:47;149540.75;;;2.91;100.00
44926;BME280;30662;51.210;7.656;2023-01-31T15:28:15;149544.50;;;2.92;100.00
44926;BME280;30662;51.210;7.656;2023-01-31T15:30:43;149529.41;;;2.86;100.00